CheckWX is a tool to help pilots better visualize weather data.  It is not intended as a substitute for an official pre-flight weather briefing.

13:40:57 UTC

KMRJ METAR
Iowa County Airport
Mineral Point, Wisconsin, USA
Current

26 mins ago

KMRJ 201315Z AUTO 21006KT 10SM SCT048 27/27 A2982 RMK AO2
Observed
Jul-20 @ 13:15 UTC
Wind
  • 210° at 6 KTS
Visibility
10 SM
Flight Rules
VFR
Cloud Levels
  • Scattered at 4,800' AGL
Temperature
27°C / 81°F
Dewpoint
27°C / 81°F
Heat Index
33°C / 91°F
Humidity
100%
Altimeter
29.82" Hg
Pressure
1009.82 hPa
Previous

46 mins ago

KMRJ 201255Z AUTO 19008G15KT 10SM SCT048 SCT055 27/27 A2981 RMK AO2
Observed
Jul-20 @ 12:55 UTC
Wind
  • 190° at 8 KTS
  • Gusting to 15 KTS
Visibility
10 SM
Flight Rules
VFR
Cloud Levels
  • Scattered at 4,800' AGL
  • Scattered at 5,500' AGL
Temperature
27°C / 81°F
Dewpoint
27°C / 81°F
Heat Index
33°C / 91°F
Humidity
100%
Altimeter
29.81" Hg
Pressure
1009.52 hPa
Previous

1 hour ago

KMRJ 201235Z AUTO 18008KT 10SM SCT046 27/27 A2980 RMK AO2
Observed
Jul-20 @ 12:35 UTC
Wind
  • 180° at 8 KTS
Visibility
10 SM
Flight Rules
VFR
Cloud Levels
  • Scattered at 4,600' AGL
Temperature
27°C / 81°F
Dewpoint
27°C / 81°F
Heat Index
33°C / 91°F
Humidity
100%
Altimeter
29.8" Hg
Pressure
1009.12 hPa